createdAt,value
2023-01-06T00:01:37.300Z,11.40
2023-01-06T00:04:06.089Z,11.40
2023-01-06T00:06:34.601Z,11.30
2023-01-06T00:09:06.106Z,11.40
2023-01-06T00:11:34.839Z,11.40
2023-01-06T00:14:03.277Z,11.40
2023-01-06T00:16:31.622Z,11.30
2023-01-06T00:19:01.765Z,11.10
2023-01-06T00:21:30.767Z,11.40
2023-01-06T00:23:59.217Z,11.40
2023-01-06T00:26:28.959Z,11.50
2023-01-06T00:28:58.718Z,11.40
2023-01-06T00:31:27.682Z,11.40
2023-01-06T00:33:57.287Z,11.40
2023-01-06T00:36:26.304Z,11.40
2023-01-06T00:38:54.499Z,11.40
2023-01-06T00:41:39.716Z,11.40
2023-01-06T00:44:09.638Z,11.40
2023-01-06T00:46:38.065Z,11.40
2023-01-06T00:49:07.963Z,11.40
2023-01-06T00:51:37.639Z,11.40
2023-01-06T00:54:07.053Z,11.40
2023-01-06T00:56:38.601Z,11.50
2023-01-06T00:59:09.761Z,11.50
2023-01-06T01:01:39.059Z,11.50
2023-01-06T01:04:08.185Z,13.10
2023-01-06T01:06:37.672Z,11.40
2023-01-06T01:09:07.871Z,11.50
2023-01-06T01:11:53.783Z,11.40
2023-01-06T01:14:23.669Z,11.40
2023-01-06T02:30:21.728Z,11.30
2023-01-06T05:50:28.899Z,10.70
2023-01-06T05:56:20.467Z,10.70
2023-01-06T06:10:27.755Z,10.70
2023-01-06T07:26:55.758Z,10.50
2023-01-06T07:29:24.012Z,10.20
2023-01-06T07:31:52.282Z,10.40
2023-01-06T07:34:20.558Z,10.30
2023-01-06T07:36:48.826Z,10.30
2023-01-06T07:39:17.051Z,10.30
2023-01-06T07:41:45.338Z,10.30
2023-01-06T07:44:17.160Z,10.30
2023-01-06T07:46:46.123Z,10.20
2023-01-06T07:49:14.324Z,10.40
2023-01-06T07:51:42.524Z,10.40
2023-01-06T07:54:11.159Z,10.50
2023-01-06T07:56:39.625Z,10.50
2023-01-06T07:59:07.925Z,8.90
2023-01-06T08:01:37.790Z,10.40
2023-01-06T08:04:06.327Z,10.50
2023-01-06T08:06:34.503Z,10.50
2023-01-06T08:09:03.767Z,10.40
2023-01-06T08:11:32.021Z,10.30
2023-01-06T08:14:00.250Z,10.50
2023-01-06T08:16:28.581Z,10.40
2023-01-06T08:18:58.223Z,10.50
2023-01-06T08:21:26.503Z,10.40
2023-01-06T08:23:54.790Z,10.40
2023-01-06T08:26:23.361Z,10.40
2023-01-06T08:28:52.061Z,10.50
2023-01-06T08:31:22.706Z,10.40
2023-01-06T08:33:51.798Z,10.40
2023-01-06T08:36:23.097Z,10.40
2023-01-06T08:38:51.931Z,10.50
2023-01-06T08:41:20.334Z,10.40
2023-01-06T08:43:48.997Z,10.40
2023-01-06T08:46:19.582Z,10.50
2023-01-06T08:48:48.764Z,10.60
2023-01-06T08:51:18.740Z,10.60
2023-01-06T08:53:48.953Z,10.70
2023-01-06T08:56:18.849Z,10.60
2023-01-06T08:58:51.836Z,10.60
2023-01-06T09:01:21.401Z,10.50
2023-01-06T09:03:49.854Z,10.60
2023-01-06T09:06:19.165Z,10.60
2023-01-06T09:08:49.532Z,10.70
2023-01-06T09:11:18.406Z,10.80
2023-01-06T09:13:47.542Z,10.70
2023-01-06T09:16:15.804Z,10.60
2023-01-06T09:18:49.540Z,10.80
2023-01-06T09:21:19.129Z,10.80
2023-01-06T09:23:49.510Z,10.70
2023-01-06T09:26:19.185Z,10.70
2023-01-06T09:28:47.541Z,10.80
2023-01-06T09:31:15.879Z,10.80
2023-01-06T09:33:44.133Z,10.80
2023-01-06T09:36:12.625Z,10.70
2023-01-06T09:38:40.895Z,10.90
2023-01-06T09:41:32.494Z,10.80
2023-01-06T09:44:09.049Z,10.80
2023-01-06T09:46:40.659Z,10.90
2023-01-06T09:49:10.618Z,11.00
2023-01-06T09:51:39.688Z,11.40
2023-01-06T09:54:19.022Z,10.90
2023-01-06T09:56:54.685Z,10.90
2023-01-06T09:59:28.514Z,11.00
2023-01-06T10:01:59.820Z,11.30
2023-01-06T10:04:30.527Z,11.10
2023-01-06T10:07:10.395Z,11.10
2023-01-06T10:09:47.080Z,11.10
2023-01-06T10:12:29.106Z,11.00
2023-01-06T10:15:08.708Z,11.00
2023-01-06T10:17:55.721Z,11.00
2023-01-06T10:20:46.252Z,13.30
2023-01-06T10:23:29.484Z,11.00
2023-01-06T10:26:05.913Z,11.00
2023-01-06T10:28:37.166Z,11.10
2023-01-06T10:31:09.660Z,11.00
2023-01-06T10:33:42.596Z,10.90
2023-01-06T10:36:14.415Z,11.00
2023-01-06T10:38:45.430Z,10.90
2023-01-06T10:41:22.005Z,11.00
2023-01-06T10:43:52.001Z,11.00
2023-01-06T10:46:20.484Z,11.00
2023-01-06T10:48:50.440Z,11.10
2023-01-06T10:51:36.474Z,11.00
2023-01-06T10:54:09.752Z,11.00
2023-01-06T10:56:41.019Z,10.90
2023-01-06T10:59:12.454Z,11.00
2023-01-06T11:01:50.570Z,11.00
2023-01-06T11:04:19.602Z,11.00
2023-01-06T11:06:51.582Z,11.00
2023-01-06T11:09:33.033Z,11.00
2023-01-06T11:12:03.566Z,10.90
2023-01-06T11:14:34.569Z,10.90
2023-01-06T11:17:05.018Z,10.90
2023-01-06T11:19:39.179Z,11.00
2023-01-06T11:22:27.809Z,11.00
2023-01-06T11:24:56.382Z,11.00
2023-01-06T11:27:24.590Z,11.00
2023-01-06T11:29:54.359Z,11.10
2023-01-06T11:32:25.105Z,11.00
2023-01-06T11:34:56.202Z,11.30
2023-01-06T11:37:33.257Z,11.00
2023-01-06T11:40:05.512Z,11.10
2023-01-06T11:42:42.980Z,11.00
2023-01-06T11:45:31.446Z,11.10
2023-01-06T11:47:59.795Z,11.10
2023-01-06T11:50:28.229Z,11.10
2023-01-06T11:53:00.731Z,11.10
2023-01-06T11:55:30.644Z,11.10
2023-01-06T11:58:05.239Z,11.40
2023-01-06T12:00:43.956Z,11.00
2023-01-06T12:03:22.039Z,10.40
2023-01-06T12:05:57.866Z,10.90
2023-01-06T12:08:29.561Z,11.10
2023-01-06T12:11:01.748Z,11.10
2023-01-06T12:13:32.261Z,11.10
2023-01-06T12:16:06.840Z,11.20
2023-01-06T12:18:37.463Z,11.20
2023-01-06T12:21:06.900Z,11.20
2023-01-06T12:23:38.123Z,11.20
2023-01-06T12:26:14.189Z,11.20
2023-01-06T12:28:44.726Z,11.20
2023-01-06T12:31:20.591Z,11.20
2023-01-06T12:33:53.468Z,11.20
2023-01-06T12:36:34.188Z,11.20
2023-01-06T12:39:05.202Z,11.30
2023-01-06T12:41:41.209Z,11.20
2023-01-06T12:44:17.778Z,11.20
2023-01-06T12:46:56.965Z,11.20
2023-01-06T12:49:36.583Z,11.20
2023-01-06T12:52:08.916Z,11.20
2023-01-06T12:54:38.599Z,11.00
2023-01-06T12:57:18.550Z,11.30
2023-01-06T12:59:59.247Z,11.30
2023-01-06T13:02:53.821Z,11.30
2023-01-06T13:05:44.743Z,11.20
2023-01-06T13:08:25.026Z,11.50
2023-01-06T13:11:00.478Z,11.30
2023-01-06T13:13:41.684Z,11.30
2023-01-06T13:16:19.425Z,11.40
2023-01-06T13:19:01.372Z,11.30
2023-01-06T13:21:31.968Z,11.20
2023-01-06T13:24:26.305Z,11.30
2023-01-06T13:27:30.396Z,11.30
2023-01-06T13:30:23.586Z,11.40
2023-01-06T13:33:09.528Z,11.30
2023-01-06T13:36:06.451Z,11.30
2023-01-06T13:38:52.856Z,11.10
2023-01-06T13:41:24.465Z,11.30
2023-01-06T13:43:55.207Z,11.30
2023-01-06T13:46:27.708Z,11.60
2023-01-06T13:48:59.621Z,11.40
2023-01-06T13:51:33.850Z,11.30
2023-01-06T13:54:03.090Z,11.30
2023-01-06T13:56:33.831Z,11.30
2023-01-06T13:59:51.323Z,11.40
2023-01-06T14:02:56.791Z,11.30
2023-01-06T14:05:53.104Z,11.30
2023-01-06T14:08:24.750Z,11.30
2023-01-06T14:11:04.612Z,11.30
2023-01-06T14:13:38.005Z,11.30
2023-01-06T14:16:09.806Z,11.30
2023-01-06T14:18:41.918Z,11.30
2023-01-06T14:21:20.753Z,11.30
2023-01-06T14:23:57.420Z,11.30
2023-01-06T14:26:51.203Z,11.30
2023-01-06T14:30:04.441Z,11.30
2023-01-06T14:33:02.593Z,11.30
2023-01-06T14:35:35.631Z,11.30
2023-01-06T14:38:06.923Z,11.30
2023-01-06T14:40:40.623Z,11.40
2023-01-06T14:43:29.171Z,11.30
2023-01-06T14:45:58.978Z,11.30
2023-01-06T14:48:30.008Z,11.40
2023-01-06T14:50:59.112Z,11.40
2023-01-06T14:53:33.108Z,11.30
2023-01-06T14:56:02.936Z,11.40
2023-01-06T14:58:33.312Z,11.40
2023-01-06T15:01:03.159Z,11.40
2023-01-06T15:03:33.094Z,11.40
2023-01-06T15:06:12.837Z,11.40
2023-01-06T15:08:41.216Z,11.40
2023-01-06T15:11:33.441Z,11.50
2023-01-06T15:14:01.755Z,11.40
2023-01-06T15:16:36.323Z,11.40
2023-01-06T15:19:08.033Z,11.50
2023-01-06T15:21:40.423Z,11.40
2023-01-06T15:24:20.397Z,11.40
2023-01-06T15:26:51.118Z,11.40
2023-01-06T15:29:21.531Z,11.50
2023-01-06T15:31:52.106Z,11.20
2023-01-06T15:34:22.753Z,11.50
2023-01-06T15:36:54.311Z,11.50
2023-01-06T15:39:26.352Z,11.50
2023-01-06T15:41:56.337Z,11.40
2023-01-06T15:44:29.602Z,11.10
2023-01-06T15:47:21.864Z,11.50
2023-01-06T15:49:53.921Z,11.40
2023-01-06T15:52:27.456Z,13.10
2023-01-06T15:54:58.553Z,11.50
2023-01-06T15:57:31.667Z,11.40
2023-01-06T16:00:03.415Z,11.40
2023-01-06T16:02:34.227Z,11.50
2023-01-06T16:05:03.139Z,11.50
2023-01-06T16:07:39.395Z,11.40
2023-01-06T16:10:32.788Z,11.40
2023-01-06T16:13:23.557Z,11.40
2023-01-06T16:15:53.969Z,11.40
2023-01-06T16:18:31.758Z,11.30
2023-01-06T16:21:01.585Z,11.40
2023-01-06T16:23:34.259Z,10.60
2023-01-06T16:26:12.675Z,11.10
2023-01-06T16:28:48.667Z,11.50
2023-01-06T16:31:32.597Z,11.40
2023-01-06T16:34:18.868Z,11.50
2023-01-06T16:36:47.333Z,11.50
2023-01-06T16:39:15.748Z,11.50
2023-01-06T16:42:42.609Z,10.60
2023-01-06T16:45:20.133Z,11.40
2023-01-06T16:47:48.491Z,11.60
2023-01-06T16:50:19.948Z,11.50
2023-01-06T16:52:49.187Z,11.40
2023-01-06T16:55:19.693Z,11.40
2023-01-06T16:57:50.891Z,11.40
2023-01-06T17:00:23.241Z,11.40
2023-01-06T17:02:52.809Z,11.40
2023-01-06T17:05:27.299Z,11.40
2023-01-06T17:08:01.085Z,11.40
2023-01-06T17:10:30.458Z,11.40
2023-01-06T17:13:20.002Z,11.40
2023-01-06T17:15:52.691Z,11.40
2023-01-06T17:18:24.332Z,11.70
2023-01-06T17:20:53.542Z,11.40
2023-01-06T17:23:21.801Z,11.80
2023-01-06T17:25:50.314Z,11.40
2023-01-06T17:28:21.188Z,11.50
2023-01-06T17:30:52.079Z,11.40
2023-01-06T17:33:20.885Z,11.10
2023-01-06T17:35:54.390Z,11.40
2023-01-06T17:38:25.487Z,11.40
2023-01-06T17:40:54.900Z,12.00
2023-01-06T17:43:28.016Z,11.50
2023-01-06T17:45:58.235Z,11.40
2023-01-06T17:48:27.304Z,11.50
2023-01-06T17:50:56.893Z,11.50
2023-01-06T17:53:47.867Z,11.50
2023-01-06T17:56:16.307Z,11.40
2023-01-06T17:58:46.145Z,11.40
2023-01-06T18:01:21.737Z,11.40
2023-01-06T18:03:51.246Z,11.50
2023-01-06T18:06:27.916Z,11.50
2023-01-06T18:09:08.891Z,11.50
2023-01-06T18:11:39.822Z,11.50
2023-01-06T18:14:25.034Z,11.50
2023-01-06T18:16:59.098Z,11.50
2023-01-06T18:19:34.653Z,11.50
2023-01-06T18:22:15.102Z,11.50
2023-01-06T18:24:45.068Z,11.80
2023-01-06T18:27:18.187Z,11.50
2023-01-06T18:29:46.818Z,11.50
2023-01-06T18:32:25.426Z,11.50
2023-01-06T18:34:55.127Z,11.10
2023-01-06T18:37:25.624Z,11.50
2023-01-06T18:39:58.013Z,11.50
2023-01-06T18:42:29.340Z,11.50
2023-01-06T18:45:03.562Z,11.50
2023-01-06T18:47:37.149Z,11.50
2023-01-06T18:50:24.813Z,11.50
2023-01-06T18:52:54.540Z,11.50
2023-01-06T18:55:28.887Z,11.50
2023-01-06T18:58:02.590Z,11.50
2023-01-06T19:00:40.680Z,11.40
2023-01-06T19:03:36.747Z,11.40
2023-01-06T19:06:43.832Z,11.40
2023-01-06T19:09:19.427Z,11.50
2023-01-06T19:11:49.012Z,11.40
2023-01-06T19:14:19.437Z,11.40
2023-01-06T19:16:52.518Z,11.40
2023-01-06T19:19:25.930Z,11.50
2023-01-06T19:22:01.515Z,11.40
2023-01-06T19:24:56.827Z,11.40
2023-01-06T19:27:39.742Z,11.30
2023-01-06T19:30:43.849Z,11.30
2023-01-06T19:33:35.154Z,11.30
2023-01-06T19:36:48.327Z,11.40
2023-01-06T19:39:38.044Z,11.40
2023-01-06T19:42:19.363Z,11.30
2023-01-06T19:44:50.771Z,11.30
2023-01-06T19:47:25.116Z,11.40
2023-01-06T19:49:58.655Z,11.40
2023-01-06T19:52:34.092Z,11.30
2023-01-06T19:55:18.706Z,11.10
2023-01-06T19:57:50.782Z,10.80
2023-01-06T20:00:27.135Z,11.40
2023-01-06T20:02:58.336Z,11.40
2023-01-06T20:05:27.632Z,11.40
2023-01-06T20:07:55.951Z,11.40
2023-01-06T20:10:25.594Z,11.40
2023-01-06T20:12:53.829Z,11.20
2023-01-06T20:15:22.171Z,11.30
2023-01-06T20:17:50.492Z,11.20
2023-01-06T20:20:18.857Z,11.30
2023-01-06T20:22:47.100Z,13.30
2023-01-06T20:25:15.739Z,11.50
2023-01-06T20:27:45.353Z,11.20
2023-01-06T20:30:13.784Z,11.10
2023-01-06T20:32:42.004Z,11.30
2023-01-06T20:35:12.431Z,11.30
2023-01-06T20:37:40.732Z,11.30
2023-01-06T20:40:10.127Z,11.30
2023-01-06T20:42:38.592Z,11.30
2023-01-06T20:45:09.331Z,11.40
2023-01-06T20:47:37.632Z,11.30
2023-01-06T20:50:07.549Z,11.40
2023-01-06T20:52:35.979Z,11.40
2023-01-06T20:55:04.320Z,11.40
2023-01-06T20:57:32.595Z,11.50
2023-01-06T21:00:00.934Z,11.50
2023-01-06T21:02:30.640Z,11.40
2023-01-06T21:04:59.087Z,10.80
2023-01-06T21:07:27.285Z,11.40
2023-01-06T21:09:55.545Z,11.50
2023-01-06T21:12:23.991Z,11.40
2023-01-06T21:14:52.318Z,11.50
2023-01-06T21:17:20.533Z,11.40
2023-01-06T21:19:50.168Z,11.30
2023-01-06T21:22:18.499Z,11.40
2023-01-06T21:24:46.711Z,11.50
2023-01-06T21:27:15.003Z,11.50
2023-01-06T21:29:43.214Z,11.50
2023-01-06T21:32:11.811Z,11.50
2023-01-06T21:34:40.364Z,11.40
2023-01-06T21:37:10.118Z,11.40
2023-01-06T21:39:38.371Z,11.40
2023-01-06T21:42:24.236Z,11.30
2023-01-06T21:44:52.427Z,11.30
2023-01-06T21:47:20.880Z,11.30
2023-01-06T21:49:49.131Z,11.40
2023-01-06T21:52:19.108Z,11.30
2023-01-06T21:54:47.358Z,11.30
2023-01-06T21:57:15.610Z,11.30
2023-01-06T21:59:44.709Z,11.30
2023-01-06T22:02:16.168Z,11.20
2023-01-06T22:04:44.771Z,11.40
2023-01-06T22:07:14.987Z,11.30
2023-01-06T22:09:45.739Z,11.40
2023-01-06T22:12:16.354Z,11.30
2023-01-06T22:14:45.302Z,11.40
2023-01-06T22:17:14.026Z,11.50
2023-01-06T22:19:43.572Z,11.40
2023-01-06T22:22:12.005Z,11.40
2023-01-06T22:24:41.203Z,11.30
2023-01-06T22:27:11.065Z,11.40
2023-01-06T22:29:39.308Z,11.40
2023-01-06T22:32:08.036Z,11.40
2023-01-06T22:34:37.288Z,11.40
2023-01-06T22:37:05.556Z,11.30
2023-01-06T22:39:33.865Z,11.40
2023-01-06T22:42:02.169Z,11.40
2023-01-06T22:44:31.971Z,11.40
2023-01-06T22:47:00.172Z,11.40
2023-01-06T22:49:28.503Z,11.40
2023-01-06T22:51:56.751Z,11.40
2023-01-06T22:54:25.044Z,11.30
2023-01-06T22:56:53.287Z,11.40
2023-01-06T22:59:21.700Z,11.30
2023-01-06T23:01:51.488Z,11.30
2023-01-06T23:04:19.830Z,11.40
2023-01-06T23:06:48.180Z,11.40
2023-01-06T23:09:16.495Z,11.30
2023-01-06T23:11:44.860Z,11.30
2023-01-06T23:14:14.313Z,11.30
2023-01-06T23:16:45.284Z,11.40
2023-01-06T23:19:16.863Z,11.40
2023-01-06T23:21:45.299Z,11.40
2023-01-06T23:24:14.426Z,11.40
2023-01-06T23:26:44.300Z,11.40
2023-01-06T23:29:13.554Z,11.40
2023-01-06T23:31:43.989Z,11.40
2023-01-06T23:34:15.742Z,11.30
2023-01-06T23:36:44.447Z,11.30
2023-01-06T23:39:16.901Z,11.40
2023-01-06T23:41:45.530Z,11.30
2023-01-06T23:44:15.851Z,11.50
2023-01-06T23:46:44.721Z,9.30
2023-01-06T23:49:17.087Z,11.40
2023-01-06T23:51:45.854Z,11.40
2023-01-06T23:54:15.137Z,11.40
2023-01-06T23:56:43.474Z,11.40
2023-01-06T23:59:13.162Z,11.40
